sensor_id;sensor_type;location;lat;lon;timestamp;pressure;altitude;pressure_sealevel;temperature;humidity
46303;BME280;32029;51.358;5.628;2022-10-17T00:01:02;101351.59;;;16.27;100.00
46303;BME280;32029;51.358;5.628;2022-10-17T00:03:32;101351.38;;;16.28;100.00
46303;BME280;32029;51.358;5.628;2022-10-17T00:06:09;101355.81;;;16.29;100.00
46303;BME280;32029;51.358;5.628;2022-10-17T00:08:36;101330.69;;;16.17;100.00
46303;BME280;32029;51.358;5.628;2022-10-17T00:11:08;101340.94;;;16.24;100.00
46303;BME280;32029;51.358;5.628;2022-10-17T00:18:52;101339.66;;;16.33;100.00
46303;BME280;32029;51.358;5.628;2022-10-17T00:21:20;101300.66;;;16.01;100.00
46303;BME280;32029;51.358;5.628;2022-10-17T00:23:47;101297.25;;;15.99;100.00
46303;BME280;32029;51.358;5.628;2022-10-17T00:26:14;101344.09;;;16.34;100.00
46303;BME280;32029;51.358;5.628;2022-10-17T00:28:48;101319.63;;;16.17;100.00
46303;BME280;32029;51.358;5.628;2022-10-17T00:31:16;101342.22;;;16.34;100.00
46303;BME280;32029;51.358;5.628;2022-10-17T00:33:44;101339.22;;;16.36;100.00
46303;BME280;32029;51.358;5.628;2022-10-17T00:36:16;101346.47;;;16.37;100.00
46303;BME280;32029;51.358;5.628;2022-10-17T00:38:46;101341.78;;;16.37;100.00
46303;BME280;32029;51.358;5.628;2022-10-17T00:41:16;101342.63;;;16.38;100.00
46303;BME280;32029;51.358;5.628;2022-10-17T00:43:58;101339.00;;;16.37;100.00
46303;BME280;32029;51.358;5.628;2022-10-17T00:46:28;101287.69;;;16.08;100.00
46303;BME280;32029;51.358;5.628;2022-10-17T00:48:56;101310.25;;;16.18;100.00
46303;BME280;32029;51.358;5.628;2022-10-17T00:51:30;101339.84;;;16.38;100.00
46303;BME280;32029;51.358;5.628;2022-10-17T00:54:01;101338.16;;;16.37;100.00
46303;BME280;32029;51.358;5.628;2022-10-17T00:56:30;101337.06;;;16.38;100.00
46303;BME280;32029;51.358;5.628;2022-10-17T00:58:58;101286.41;;;16.04;100.00
46303;BME280;32029;51.358;5.628;2022-10-17T01:01:25;101344.34;;;16.39;100.00
46303;BME280;32029;51.358;5.628;2022-10-17T01:03:52;101300.47;;;16.16;100.00
46303;BME280;32029;51.358;5.628;2022-10-17T01:06:19;101310.66;;;16.22;100.00
46303;BME280;32029;51.358;5.628;2022-10-17T01:08:48;101277.47;;;16.09;100.00
46303;BME280;32029;51.358;5.628;2022-10-17T01:23:04;101329.22;;;16.35;100.00
46303;BME280;32029;51.358;5.628;2022-10-17T01:31:17;101333.25;;;16.39;100.00
46303;BME280;32029;51.358;5.628;2022-10-17T01:34:08;101298.53;;;16.16;100.00
46303;BME280;32029;51.358;5.628;2022-10-17T01:36:52;101319.84;;;16.29;100.00
46303;BME280;32029;51.358;5.628;2022-10-17T01:42:11;101330.03;;;16.42;100.00
46303;BME280;32029;51.358;5.628;2022-10-17T01:44:50;101337.31;;;16.43;100.00
46303;BME280;32029;51.358;5.628;2022-10-17T01:47:25;101317.50;;;16.39;100.00
46303;BME280;32029;51.358;5.628;2022-10-17T01:49:58;101280.84;;;16.17;100.00
46303;BME280;32029;51.358;5.628;2022-10-17T01:52:33;101317.50;;;16.46;100.00
46303;BME280;32029;51.358;5.628;2022-10-17T01:55:13;101288.75;;;16.27;100.00
46303;BME280;32029;51.358;5.628;2022-10-17T01:57:45;101322.59;;;16.49;100.00
46303;BME280;32029;51.358;5.628;2022-10-17T02:00:22;101312.34;;;16.50;100.00
46303;BME280;32029;51.358;5.628;2022-10-17T02:03:02;101299.19;;;16.32;100.00
46303;BME280;32029;51.358;5.628;2022-10-17T02:05:36;101317.91;;;16.50;100.00
46303;BME280;32029;51.358;5.628;2022-10-17T02:08:04;101313.22;;;16.50;100.00
46303;BME280;32029;51.358;5.628;2022-10-17T02:13:24;101291.50;;;16.40;100.00
46303;BME280;32029;51.358;5.628;2022-10-17T02:19:06;101296.63;;;16.50;100.00
46303;BME280;32029;51.358;5.628;2022-10-17T02:24:44;101303.19;;;16.49;100.00
46303;BME280;32029;51.358;5.628;2022-10-17T02:27:19;101260.19;;;16.13;100.00
46303;BME280;32029;51.358;5.628;2022-10-17T02:30:25;101287.44;;;16.50;100.00
46303;BME280;32029;51.358;5.628;2022-10-17T02:36:11;101298.72;;;16.48;100.00
46303;BME280;32029;51.358;5.628;2022-10-17T02:38:41;101261.06;;;16.27;100.00
46303;BME280;32029;51.358;5.628;2022-10-17T02:41:13;101294.88;;;16.49;100.00
46303;BME280;32029;51.358;5.628;2022-10-17T02:43:42;101294.69;;;16.51;100.00
46303;BME280;32029;51.358;5.628;2022-10-17T02:46:14;101263.38;;;16.30;100.00
46303;BME280;32029;51.358;5.628;2022-10-17T02:52:35;101294.47;;;16.52;100.00
46303;BME280;32029;51.358;5.628;2022-10-17T02:57:27;101301.28;;;16.56;100.00
46303;BME280;32029;51.358;5.628;2022-10-17T03:00:00;101301.94;;;16.58;100.00
46303;BME280;32029;51.358;5.628;2022-10-17T03:02:27;101300.84;;;16.59;100.00
46303;BME280;32029;51.358;5.628;2022-10-17T03:04:54;101278.91;;;16.45;100.00
46303;BME280;32029;51.358;5.628;2022-10-17T03:07:22;101204.00;;;16.00;100.00
46303;BME280;32029;51.358;5.628;2022-10-17T03:09:48;101256.56;;;16.26;100.00
46303;BME280;32029;51.358;5.628;2022-10-17T03:12:15;101262.94;;;16.33;100.00
46303;BME280;32029;51.358;5.628;2022-10-17T03:14:42;101262.53;;;16.30;100.00
46303;BME280;32029;51.358;5.628;2022-10-17T03:17:09;101267.66;;;16.39;100.00
46303;BME280;32029;51.358;5.628;2022-10-17T03:19:36;101278.91;;;16.38;100.00
46303;BME280;32029;51.358;5.628;2022-10-17T03:22:03;101302.56;;;16.47;100.00
46303;BME280;32029;51.358;5.628;2022-10-17T03:24:30;101298.94;;;16.53;100.00
46303;BME280;32029;51.358;5.628;2022-10-17T03:26:57;101303.44;;;16.48;100.00
46303;BME280;32029;51.358;5.628;2022-10-17T03:29:24;101290.66;;;16.47;100.00
46303;BME280;32029;51.358;5.628;2022-10-17T03:31:51;101290.84;;;16.45;100.00
46303;BME280;32029;51.358;5.628;2022-10-17T03:34:18;101318.75;;;16.63;100.00
46303;BME280;32029;51.358;5.628;2022-10-17T03:36:44;101304.69;;;16.58;100.00
46303;BME280;32029;51.358;5.628;2022-10-17T03:39:11;101274.03;;;16.40;100.00
46303;BME280;32029;51.358;5.628;2022-10-17T03:41:38;101308.50;;;16.64;100.00
46303;BME280;32029;51.358;5.628;2022-10-17T03:44:05;101308.28;;;16.65;100.00
46303;BME280;32029;51.358;5.628;2022-10-17T03:46:32;101308.94;;;16.67;100.00
46303;BME280;32029;51.358;5.628;2022-10-17T03:48:59;101307.00;;;16.61;100.00
46303;BME280;32029;51.358;5.628;2022-10-17T03:51:26;101282.78;;;16.50;100.00
46303;BME280;32029;51.358;5.628;2022-10-17T03:53:53;101284.03;;;16.54;100.00
46303;BME280;32029;51.358;5.628;2022-10-17T03:56:22;101315.34;;;16.75;100.00
46303;BME280;32029;51.358;5.628;2022-10-17T03:58:49;101328.78;;;16.78;100.00
46303;BME280;32029;51.358;5.628;2022-10-17T04:01:17;101300.84;;;16.59;100.00
46303;BME280;32029;51.358;5.628;2022-10-17T04:03:50;101296.34;;;16.65;100.00
46303;BME280;32029;51.358;5.628;2022-10-17T04:06:17;101309.59;;;16.76;100.00
46303;BME280;32029;51.358;5.628;2022-10-17T04:08:45;101294.88;;;16.76;100.00
46303;BME280;32029;51.358;5.628;2022-10-17T04:11:14;101318.72;;;16.90;100.00
46303;BME280;32029;51.358;5.628;2022-10-17T04:13:41;101294.00;;;16.69;100.00
46303;BME280;32029;51.358;5.628;2022-10-17T04:16:14;101298.72;;;16.75;100.00
46303;BME280;32029;51.358;5.628;2022-10-17T04:18:42;101328.06;;;17.02;100.00
46303;BME280;32029;51.358;5.628;2022-10-17T04:21:10;101330.19;;;17.13;100.00
46303;BME280;32029;51.358;5.628;2022-10-17T04:23:37;101284.22;;;16.86;100.00
46303;BME280;32029;51.358;5.628;2022-10-17T04:26:05;101314.84;;;17.04;100.00
46303;BME280;32029;51.358;5.628;2022-10-17T04:28:32;101343.97;;;17.27;100.00
46303;BME280;32029;51.358;5.628;2022-10-17T04:31:11;101310.56;;;17.08;100.00
46303;BME280;32029;51.358;5.628;2022-10-17T04:33:40;101329.50;;;17.25;100.00
46303;BME280;32029;51.358;5.628;2022-10-17T04:36:11;101315.41;;;17.20;100.00
46303;BME280;32029;51.358;5.628;2022-10-17T04:38:39;101335.00;;;17.31;100.00
46303;BME280;32029;51.358;5.628;2022-10-17T04:41:09;101315.84;;;17.23;100.00
46303;BME280;32029;51.358;5.628;2022-10-17T04:43:38;101329.25;;;17.33;100.00
46303;BME280;32029;51.358;5.628;2022-10-17T04:46:08;101335.88;;;17.32;100.00
46303;BME280;32029;51.358;5.628;2022-10-17T04:48:36;101338.66;;;17.32;100.00
46303;BME280;32029;51.358;5.628;2022-10-17T04:51:09;101335.66;;;17.27;100.00
46303;BME280;32029;51.358;5.628;2022-10-17T04:53:37;101294.38;;;17.05;100.00
46303;BME280;32029;51.358;5.628;2022-10-17T04:56:16;101348.44;;;17.34;100.00
46303;BME280;32029;51.358;5.628;2022-10-17T04:58:45;101310.13;;;17.11;100.00
46303;BME280;32029;51.358;5.628;2022-10-17T05:01:20;101360.38;;;17.35;100.00
46303;BME280;32029;51.358;5.628;2022-10-17T05:03:47;101366.56;;;17.37;100.00
46303;BME280;32029;51.358;5.628;2022-10-17T05:06:19;101323.38;;;17.09;100.00
46303;BME280;32029;51.358;5.628;2022-10-17T05:08:46;101349.53;;;17.27;100.00
46303;BME280;32029;51.358;5.628;2022-10-17T05:13:51;101366.31;;;17.45;100.00
46303;BME280;32029;51.358;5.628;2022-10-17T05:16:19;101356.56;;;17.36;100.00
46303;BME280;32029;51.358;5.628;2022-10-17T05:18:54;101363.31;;;17.47;100.00
46303;BME280;32029;51.358;5.628;2022-10-17T05:21:22;101365.03;;;17.48;100.00
46303;BME280;32029;51.358;5.628;2022-10-17T05:23:50;101337.56;;;17.33;100.00
46303;BME280;32029;51.358;5.628;2022-10-17T05:26:17;101356.91;;;17.46;100.00
46303;BME280;32029;51.358;5.628;2022-10-17T05:28:44;101368.00;;;17.53;100.00
46303;BME280;32029;51.358;5.628;2022-10-17T05:31:12;101365.00;;;17.54;100.00
46303;BME280;32029;51.358;5.628;2022-10-17T05:33:39;101342.03;;;17.34;100.00
46303;BME280;32029;51.358;5.628;2022-10-17T05:36:06;101335.63;;;17.40;100.00
46303;BME280;32029;51.358;5.628;2022-10-17T05:38:34;101375.41;;;17.66;100.00
46303;BME280;32029;51.358;5.628;2022-10-17T05:41:02;101351.97;;;17.55;100.00
46303;BME280;32029;51.358;5.628;2022-10-17T05:43:30;101355.41;;;17.50;100.00
46303;BME280;32029;51.358;5.628;2022-10-17T05:45:57;101355.38;;;17.57;100.00
46303;BME280;32029;51.358;5.628;2022-10-17T05:48:24;101346.22;;;17.56;100.00
46303;BME280;32029;51.358;5.628;2022-10-17T05:50:57;101354.72;;;17.61;100.00
46303;BME280;32029;51.358;5.628;2022-10-17T05:53:24;101350.06;;;17.55;100.00
46303;BME280;32029;51.358;5.628;2022-10-17T05:55:55;101362.38;;;17.66;100.00
46303;BME280;32029;51.358;5.628;2022-10-17T05:58:22;101357.25;;;17.63;100.00
46303;BME280;32029;51.358;5.628;2022-10-17T06:00:49;101400.53;;;17.84;100.00
46303;BME280;32029;51.358;5.628;2022-10-17T06:03:15;101401.63;;;17.83;100.00
46303;BME280;32029;51.358;5.628;2022-10-17T06:05:42;101377.75;;;17.69;100.00
46303;BME280;32029;51.358;5.628;2022-10-17T06:08:09;101365.38;;;17.64;100.00
46303;BME280;32029;51.358;5.628;2022-10-17T06:10:37;101405.41;;;17.88;100.00
46303;BME280;32029;51.358;5.628;2022-10-17T06:13:04;101355.56;;;17.62;100.00
46303;BME280;32029;51.358;5.628;2022-10-17T06:15:30;101356.41;;;17.62;100.00
46303;BME280;32029;51.358;5.628;2022-10-17T06:17:57;101398.59;;;17.91;100.00
46303;BME280;32029;51.358;5.628;2022-10-17T06:20:24;101366.19;;;17.72;100.00
46303;BME280;32029;51.358;5.628;2022-10-17T06:22:51;101368.31;;;17.83;100.00
46303;BME280;32029;51.358;5.628;2022-10-17T06:25:18;101383.63;;;17.92;100.00
46303;BME280;32029;51.358;5.628;2022-10-17T06:27:44;101394.22;;;18.02;100.00
46303;BME280;32029;51.358;5.628;2022-10-17T06:30:11;101415.94;;;18.18;100.00
46303;BME280;32029;51.358;5.628;2022-10-17T06:32:38;101386.53;;;18.04;100.00
46303;BME280;32029;51.358;5.628;2022-10-17T06:35:05;101370.56;;;17.99;100.00
46303;BME280;32029;51.358;5.628;2022-10-17T06:37:33;101409.03;;;18.27;100.00
46303;BME280;32029;51.358;5.628;2022-10-17T06:39:59;101377.94;;;18.12;100.00
46303;BME280;32029;51.358;5.628;2022-10-17T06:42:26;101400.47;;;18.29;100.00
46303;BME280;32029;51.358;5.628;2022-10-17T06:44:53;101389.41;;;18.22;100.00
46303;BME280;32029;51.358;5.628;2022-10-17T06:47:20;101366.16;;;18.17;100.00
46303;BME280;32029;51.358;5.628;2022-10-17T06:49:47;101383.19;;;18.27;100.00
46303;BME280;32029;51.358;5.628;2022-10-17T06:52:14;101425.06;;;18.57;100.00
46303;BME280;32029;51.358;5.628;2022-10-17T06:54:43;101399.94;;;18.45;100.00
46303;BME280;32029;51.358;5.628;2022-10-17T06:57:10;101383.06;;;18.40;100.00
46303;BME280;32029;51.358;5.628;2022-10-17T06:59:36;101405.63;;;18.57;100.00
46303;BME280;32029;51.358;5.628;2022-10-17T07:02:03;101419.38;;;18.77;100.00
46303;BME280;32029;51.358;5.628;2022-10-17T07:04:32;101387.00;;;18.57;100.00
46303;BME280;32029;51.358;5.628;2022-10-17T07:06:59;101386.72;;;18.66;100.00
46303;BME280;32029;51.358;5.628;2022-10-17T07:09:32;101421.63;;;18.87;100.00
46303;BME280;32029;51.358;5.628;2022-10-17T07:12:00;101419.81;;;18.74;100.00
46303;BME280;32029;51.358;5.628;2022-10-17T07:14:27;101426.97;;;18.88;100.00
46303;BME280;32029;51.358;5.628;2022-10-17T07:16:58;101444.78;;;19.05;100.00
46303;BME280;32029;51.358;5.628;2022-10-17T07:19:25;101442.88;;;18.99;100.00
46303;BME280;32029;51.358;5.628;2022-10-17T07:21:52;101414.63;;;18.84;100.00
46303;BME280;32029;51.358;5.628;2022-10-17T07:24:19;101475.63;;;19.22;100.00
46303;BME280;32029;51.358;5.628;2022-10-17T07:26:46;101450.66;;;19.16;100.00
46303;BME280;32029;51.358;5.628;2022-10-17T07:29:14;101468.00;;;19.36;100.00
46303;BME280;32029;51.358;5.628;2022-10-17T07:31:41;101420.53;;;19.13;100.00
46303;BME280;32029;51.358;5.628;2022-10-17T07:34:08;101435.13;;;19.26;100.00
46303;BME280;32029;51.358;5.628;2022-10-17T07:36:34;101479.78;;;19.56;100.00
46303;BME280;32029;51.358;5.628;2022-10-17T07:39:02;101488.28;;;19.62;100.00
46303;BME280;32029;51.358;5.628;2022-10-17T07:41:29;101471.72;;;19.48;99.68
46303;BME280;32029;51.358;5.628;2022-10-17T07:43:56;101480.72;;;19.50;99.52
46303;BME280;32029;51.358;5.628;2022-10-17T07:46:22;101506.88;;;19.68;99.58
46303;BME280;32029;51.358;5.628;2022-10-17T07:48:50;101489.53;;;19.66;99.46
46303;BME280;32029;51.358;5.628;2022-10-17T07:51:17;101519.72;;;19.87;99.57
46303;BME280;32029;51.358;5.628;2022-10-17T07:53:45;101500.53;;;19.79;99.49
46303;BME280;32029;51.358;5.628;2022-10-17T07:56:12;101526.84;;;20.01;98.96
46303;BME280;32029;51.358;5.628;2022-10-17T07:58:40;101522.97;;;20.02;97.37
46303;BME280;32029;51.358;5.628;2022-10-17T08:01:08;101546.09;;;20.21;96.91
46303;BME280;32029;51.358;5.628;2022-10-17T08:03:41;101553.34;;;20.22;97.65
46303;BME280;32029;51.358;5.628;2022-10-17T08:06:08;101525.94;;;20.19;96.97
46303;BME280;32029;51.358;5.628;2022-10-17T08:08:37;101562.69;;;20.46;96.48
46303;BME280;32029;51.358;5.628;2022-10-17T08:11:08;101564.69;;;20.58;95.71
46303;BME280;32029;51.358;5.628;2022-10-17T08:13:38;101573.13;;;20.69;94.62
46303;BME280;32029;51.358;5.628;2022-10-17T08:16:10;101563.09;;;20.80;94.60
46303;BME280;32029;51.358;5.628;2022-10-17T08:18:39;101565.31;;;21.01;94.08
46303;BME280;32029;51.358;5.628;2022-10-17T08:21:08;101519.44;;;20.86;91.71
46303;BME280;32029;51.358;5.628;2022-10-17T08:23:36;101567.53;;;20.99;90.90
46303;BME280;32029;51.358;5.628;2022-10-17T08:26:05;101597.63;;;21.21;91.29
46303;BME280;32029;51.358;5.628;2022-10-17T08:28:37;101592.19;;;21.14;89.45
46303;BME280;32029;51.358;5.628;2022-10-17T08:31:12;101561.66;;;20.89;90.28
46303;BME280;32029;51.358;5.628;2022-10-17T08:33:41;101608.69;;;21.16;89.73
46303;BME280;32029;51.358;5.628;2022-10-17T08:36:11;101619.72;;;21.11;89.89
46303;BME280;32029;51.358;5.628;2022-10-17T08:38:41;101575.69;;;20.83;90.39
46303;BME280;32029;51.358;5.628;2022-10-17T08:41:16;101601.22;;;20.98;90.32
46303;BME280;32029;51.358;5.628;2022-10-17T08:46:41;101623.94;;;21.13;89.71
46303;BME280;32029;51.358;5.628;2022-10-17T08:49:18;101640.59;;;21.20;89.22
46303;BME280;32029;51.358;5.628;2022-10-17T08:51:55;101651.50;;;21.21;89.74
46303;BME280;32029;51.358;5.628;2022-10-17T08:54:39;101646.19;;;21.20;89.19
46303;BME280;32029;51.358;5.628;2022-10-17T08:57:12;101629.53;;;21.13;89.22
46303;BME280;32029;51.358;5.628;2022-10-17T08:59:42;101608.53;;;20.99;89.41
46303;BME280;32029;51.358;5.628;2022-10-17T09:02:36;101630.34;;;21.02;88.91
46303;BME280;32029;51.358;5.628;2022-10-17T09:05:29;101633.50;;;21.05;89.66
46303;BME280;32029;51.358;5.628;2022-10-17T09:08:11;101623.03;;;20.89;89.71
46303;BME280;32029;51.358;5.628;2022-10-17T09:10:51;101654.75;;;21.07;89.36
46303;BME280;32029;51.358;5.628;2022-10-17T09:16:35;101652.81;;;20.77;89.78
46303;BME280;32029;51.358;5.628;2022-10-17T09:22:00;101686.28;;;20.77;89.99
46303;BME280;32029;51.358;5.628;2022-10-17T09:24:46;101707.16;;;20.86;90.35
46303;BME280;32029;51.358;5.628;2022-10-17T09:27:34;101693.06;;;20.81;91.10
46303;BME280;32029;51.358;5.628;2022-10-17T09:32:46;101627.91;;;20.64;92.26
46303;BME280;32029;51.358;5.628;2022-10-17T09:35:14;101630.63;;;20.82;92.59
46303;BME280;32029;51.358;5.628;2022-10-17T09:37:42;101617.25;;;20.72;92.58
46303;BME280;32029;51.358;5.628;2022-10-17T09:40:18;101647.78;;;20.97;92.19
46303;BME280;32029;51.358;5.628;2022-10-17T09:42:49;101599.06;;;20.70;92.13
46303;BME280;32029;51.358;5.628;2022-10-17T09:47:50;101576.63;;;20.65;92.56
46303;BME280;32029;51.358;5.628;2022-10-17T09:50:26;101625.47;;;20.97;92.25
46303;BME280;32029;51.358;5.628;2022-10-17T09:52:55;101653.66;;;21.08;91.94
46303;BME280;32029;51.358;5.628;2022-10-17T09:55:30;101671.00;;;21.10;91.82
46303;BME280;32029;51.358;5.628;2022-10-17T09:58:04;101645.47;;;20.94;91.44
46303;BME280;32029;51.358;5.628;2022-10-17T10:00:45;101654.81;;;20.88;91.46
46303;BME280;32029;51.358;5.628;2022-10-17T10:08:30;101663.16;;;20.88;95.33
46303;BME280;32029;51.358;5.628;2022-10-17T10:11:03;101666.22;;;20.98;95.17
46303;BME280;32029;51.358;5.628;2022-10-17T10:13:32;101677.69;;;21.09;95.18
46303;BME280;32029;51.358;5.628;2022-10-17T10:16:21;101696.50;;;21.13;94.75
46303;BME280;32029;51.358;5.628;2022-10-17T10:18:50;101678.72;;;20.96;94.16
46303;BME280;32029;51.358;5.628;2022-10-17T10:21:21;101655.06;;;20.98;94.75
46303;BME280;32029;51.358;5.628;2022-10-17T10:24:20;101642.84;;;20.99;95.19
46303;BME280;32029;51.358;5.628;2022-10-17T10:26:49;101695.47;;;21.26;95.56
46303;BME280;32029;51.358;5.628;2022-10-17T10:29:21;101690.38;;;21.23;95.02
46303;BME280;32029;51.358;5.628;2022-10-17T10:31:50;101682.31;;;21.15;95.63
46303;BME280;32029;51.358;5.628;2022-10-17T10:34:25;101640.66;;;21.01;94.81
46303;BME280;32029;51.358;5.628;2022-10-17T10:39:39;101661.88;;;21.33;94.89
46303;BME280;32029;51.358;5.628;2022-10-17T10:42:24;101695.06;;;21.52;94.67
46303;BME280;32029;51.358;5.628;2022-10-17T10:44:54;101699.09;;;21.57;93.59
46303;BME280;32029;51.358;5.628;2022-10-17T10:47:25;101723.41;;;21.68;93.32
46303;BME280;32029;51.358;5.628;2022-10-17T10:50:17;101727.63;;;21.59;92.69
46303;BME280;32029;51.358;5.628;2022-10-17T10:55:46;101740.31;;;21.73;91.82
46303;BME280;32029;51.358;5.628;2022-10-17T10:58:43;101717.22;;;21.66;92.22
46303;BME280;32029;51.358;5.628;2022-10-17T11:01:20;101740.56;;;21.83;91.82
46303;BME280;32029;51.358;5.628;2022-10-17T11:04:01;101697.41;;;21.67;91.70
46303;BME280;32029;51.358;5.628;2022-10-17T11:06:36;101707.50;;;21.80;91.79
46303;BME280;32029;51.358;5.628;2022-10-17T11:11:45;101751.00;;;21.99;90.82
46303;BME280;32029;51.358;5.628;2022-10-17T11:14:22;101751.75;;;21.95;89.97
46303;BME280;32029;51.358;5.628;2022-10-17T11:19:34;101743.34;;;21.83;90.13
46303;BME280;32029;51.358;5.628;2022-10-17T11:22:37;101778.47;;;22.02;90.26
46303;BME280;32029;51.358;5.628;2022-10-17T11:25:33;101748.22;;;21.88;90.66
46303;BME280;32029;51.358;5.628;2022-10-17T11:28:02;101772.78;;;22.09;91.08
46303;BME280;32029;51.358;5.628;2022-10-17T11:30:39;101729.03;;;21.91;91.08
46303;BME280;32029;51.358;5.628;2022-10-17T11:33:10;101790.94;;;22.30;90.29
46303;BME280;32029;51.358;5.628;2022-10-17T11:35:41;101752.41;;;22.20;89.96
46303;BME280;32029;51.358;5.628;2022-10-17T11:38:21;101769.41;;;22.31;90.34
46303;BME280;32029;51.358;5.628;2022-10-17T11:40:52;101748.63;;;22.15;89.64
46303;BME280;32029;51.358;5.628;2022-10-17T11:43:31;101788.88;;;22.37;89.87
46303;BME280;32029;51.358;5.628;2022-10-17T11:46:04;101790.72;;;22.43;89.79
46303;BME280;32029;51.358;5.628;2022-10-17T11:48:43;101801.03;;;22.43;89.99
46303;BME280;32029;51.358;5.628;2022-10-17T11:51:13;101799.09;;;22.43;89.33
46303;BME280;32029;51.358;5.628;2022-10-17T11:53:52;101765.19;;;22.16;89.45
46303;BME280;32029;51.358;5.628;2022-10-17T11:56:28;101804.69;;;22.43;89.41
46303;BME280;32029;51.358;5.628;2022-10-17T11:59:17;101772.22;;;22.19;89.47
46303;BME280;32029;51.358;5.628;2022-10-17T12:01:52;101780.75;;;22.36;89.50
46303;BME280;32029;51.358;5.628;2022-10-17T12:07:18;101799.59;;;22.40;89.70
46303;BME280;32029;51.358;5.628;2022-10-17T12:10:15;101810.88;;;22.45;88.52
46303;BME280;32029;51.358;5.628;2022-10-17T12:12:45;101747.84;;;21.96;87.95
46303;BME280;32029;51.358;5.628;2022-10-17T12:17:57;101827.22;;;22.07;88.51
46303;BME280;32029;51.358;5.628;2022-10-17T12:20:38;101775.41;;;21.69;88.72
46303;BME280;32029;51.358;5.628;2022-10-17T12:23:20;101828.75;;;21.91;88.92
46303;BME280;32029;51.358;5.628;2022-10-17T12:25:51;101832.78;;;21.95;89.50
46303;BME280;32029;51.358;5.628;2022-10-17T12:38:43;101804.84;;;21.65;89.33
46303;BME280;32029;51.358;5.628;2022-10-17T12:41:11;101831.84;;;21.71;89.62
46303;BME280;32029;51.358;5.628;2022-10-17T12:46:11;101784.78;;;21.26;90.50
46303;BME280;32029;51.358;5.628;2022-10-17T12:51:17;101833.44;;;21.48;91.30
46303;BME280;32029;51.358;5.628;2022-10-17T12:56:18;101847.56;;;21.53;92.30
46303;BME280;32029;51.358;5.628;2022-10-17T12:58:48;101853.53;;;21.57;92.17
46303;BME280;32029;51.358;5.628;2022-10-17T13:01:21;101861.91;;;21.57;92.66
46303;BME280;32029;51.358;5.628;2022-10-17T13:03:51;101836.81;;;21.39;93.17
46303;BME280;32029;51.358;5.628;2022-10-17T13:06:24;101824.41;;;21.35;93.00
46303;BME280;32029;51.358;5.628;2022-10-17T13:12:04;101817.78;;;21.29;94.06
46303;BME280;32029;51.358;5.628;2022-10-17T13:14:38;101857.50;;;21.49;94.00
46303;BME280;32029;51.358;5.628;2022-10-17T13:17:21;101881.09;;;21.53;94.22
46303;BME280;32029;51.358;5.628;2022-10-17T13:19:49;101871.03;;;21.34;94.77
46303;BME280;32029;51.358;5.628;2022-10-17T13:22:19;101891.94;;;21.43;95.02
46303;BME280;32029;51.358;5.628;2022-10-17T13:24:47;101897.13;;;21.40;95.25
46303;BME280;32029;51.358;5.628;2022-10-17T13:27:22;101901.88;;;21.39;95.46
46303;BME280;32029;51.358;5.628;2022-10-17T13:29:50;101880.47;;;21.33;95.45
46303;BME280;32029;51.358;5.628;2022-10-17T13:32:18;101895.81;;;21.42;95.49
46303;BME280;32029;51.358;5.628;2022-10-17T13:34:44;101881.38;;;21.27;95.66
46303;BME280;32029;51.358;5.628;2022-10-17T13:37:13;101904.03;;;21.37;96.08
46303;BME280;32029;51.358;5.628;2022-10-17T13:39:43;101915.81;;;21.39;96.20
46303;BME280;32029;51.358;5.628;2022-10-17T13:42:25;101895.78;;;21.24;96.71
46303;BME280;32029;51.358;5.628;2022-10-17T13:44:54;101859.75;;;21.04;96.53
46303;BME280;32029;51.358;5.628;2022-10-17T13:47:27;101909.44;;;21.32;96.60
46303;BME280;32029;51.358;5.628;2022-10-17T13:49:55;101889.56;;;21.22;96.78
46303;BME280;32029;51.358;5.628;2022-10-17T13:52:27;101908.19;;;21.28;96.83
46303;BME280;32029;51.358;5.628;2022-10-17T13:55:05;101896.34;;;21.14;96.74
46303;BME280;32029;51.358;5.628;2022-10-17T13:57:33;101930.53;;;21.28;97.29
46303;BME280;32029;51.358;5.628;2022-10-17T14:00:03;101927.41;;;21.18;97.62
46303;BME280;32029;51.358;5.628;2022-10-17T14:02:33;101916.56;;;21.10;97.85
46303;BME280;32029;51.358;5.628;2022-10-17T14:10:30;101952.91;;;21.21;97.83
46303;BME280;32029;51.358;5.628;2022-10-17T14:12:59;101925.75;;;20.92;97.92
46303;BME280;32029;51.358;5.628;2022-10-17T14:15:28;101962.13;;;21.22;98.15
46303;BME280;32029;51.358;5.628;2022-10-17T14:18:01;101972.44;;;21.21;97.75
46303;BME280;32029;51.358;5.628;2022-10-17T14:20:29;101964.38;;;21.13;98.03
46303;BME280;32029;51.358;5.628;2022-10-17T14:22:57;101980.44;;;21.18;97.58
46303;BME280;32029;51.358;5.628;2022-10-17T14:25:35;101966.91;;;20.96;98.37
46303;BME280;32029;51.358;5.628;2022-10-17T14:30:47;101966.75;;;20.91;98.29
46303;BME280;32029;51.358;5.628;2022-10-17T14:33:22;101957.81;;;20.83;98.67
46303;BME280;32029;51.358;5.628;2022-10-17T14:35:50;101934.94;;;20.74;98.61
46303;BME280;32029;51.358;5.628;2022-10-17T14:38:18;101928.75;;;20.72;98.34
46303;BME280;32029;51.358;5.628;2022-10-17T14:41:25;101977.94;;;21.10;98.63
46303;BME280;32029;51.358;5.628;2022-10-17T14:43:58;101938.06;;;20.84;97.74
46303;BME280;32029;51.358;5.628;2022-10-17T14:46:26;101945.50;;;20.90;97.74
46303;BME280;32029;51.358;5.628;2022-10-17T14:48:56;101949.94;;;20.98;97.26
46303;BME280;32029;51.358;5.628;2022-10-17T14:51:24;101972.19;;;21.04;96.83
46303;BME280;32029;51.358;5.628;2022-10-17T14:54:16;101969.94;;;20.95;97.61
46303;BME280;32029;51.358;5.628;2022-10-17T14:56:50;101907.91;;;20.49;97.61
46303;BME280;32029;51.358;5.628;2022-10-17T14:59:18;101905.38;;;20.41;97.43